createdAt,value
2018-04-02T00:01:35.953Z,17.98
2018-04-02T00:04:03.455Z,17.62
2018-04-02T00:06:30.959Z,18.87
2018-04-02T00:08:58.460Z,20.00
2018-04-02T00:11:26.032Z,17.45
2018-04-02T00:13:53.783Z,18.17
2018-04-02T00:16:21.637Z,16.60
2018-04-02T00:18:49.453Z,17.90
2018-04-02T00:21:16.962Z,19.23
2018-04-02T00:23:44.730Z,21.02
2018-04-02T00:26:12.341Z,15.57
2018-04-02T00:28:39.884Z,16.35
2018-04-02T00:31:07.395Z,17.98
2018-04-02T00:33:34.894Z,21.60
2018-04-02T00:36:02.392Z,20.23
2018-04-02T00:38:29.890Z,17.27
2018-04-02T00:40:59.480Z,16.05
2018-04-02T00:43:27.067Z,20.25
2018-04-02T00:45:54.573Z,15.90
2018-04-02T00:48:22.083Z,18.37
2018-04-02T00:50:49.591Z,18.20
2018-04-02T00:53:17.103Z,19.58
2018-04-02T00:55:44.671Z,25.27
2018-04-02T00:58:12.166Z,18.70
2018-04-02T01:00:39.684Z,16.17
2018-04-02T01:03:07.191Z,19.10
2018-04-02T01:05:34.715Z,20.42
2018-04-02T01:08:02.254Z,18.33
2018-04-02T01:10:29.775Z,15.80
2018-04-02T01:12:57.283Z,17.98
2018-04-02T01:15:24.782Z,15.80
2018-04-02T01:17:52.282Z,19.77
2018-04-02T01:20:19.830Z,15.23
2018-04-02T01:22:47.349Z,20.17
2018-04-02T01:25:15.011Z,20.33
2018-04-02T01:27:42.984Z,20.33
2018-04-02T01:30:10.487Z,20.73
2018-04-02T01:32:37.995Z,17.85
2018-04-02T01:35:05.561Z,17.55
2018-04-02T01:37:33.174Z,17.30
2018-04-02T01:40:00.729Z,21.70
2018-04-02T01:42:28.237Z,18.90
2018-04-02T01:44:55.753Z,19.92
2018-04-02T01:47:23.256Z,19.80
2018-04-02T01:49:50.748Z,16.55
2018-04-02T01:52:18.248Z,15.35
2018-04-02T01:54:45.768Z,17.52
2018-04-02T01:57:13.845Z,20.45
2018-04-02T01:59:41.399Z,17.48
2018-04-02T02:02:08.909Z,17.80
2018-04-02T02:04:36.554Z,16.25
2018-04-02T02:07:04.075Z,25.75
2018-04-02T02:09:31.569Z,17.90
2018-04-02T02:11:59.096Z,16.23
2018-04-02T02:14:26.599Z,20.80
2018-04-02T02:16:54.162Z,15.98
2018-04-02T02:19:21.675Z,17.25
2018-04-02T02:21:49.205Z,20.90
2018-04-02T02:24:16.691Z,19.02
2018-04-02T02:26:44.199Z,17.92
2018-04-02T02:29:11.722Z,15.95
2018-04-02T02:31:39.239Z,18.70
2018-04-02T02:34:06.734Z,18.42
2018-04-02T02:36:34.236Z,15.52
2018-04-02T02:39:01.751Z,17.25
2018-04-02T02:41:29.255Z,18.55
2018-04-02T02:43:56.757Z,19.90
2018-04-02T02:46:24.261Z,16.00
2018-04-02T02:48:51.773Z,18.35
2018-04-02T02:51:19.343Z,17.87
2018-04-02T02:53:46.877Z,19.05
2018-04-02T02:56:14.385Z,17.70
2018-04-02T02:58:41.896Z,22.90
2018-04-02T03:01:09.434Z,19.27
2018-04-02T03:03:37.214Z,16.60
2018-04-02T03:06:04.704Z,20.62
2018-04-02T03:08:32.213Z,18.75
2018-04-02T03:10:59.701Z,19.58
2018-04-02T03:13:27.250Z,18.20
2018-04-02T03:15:54.806Z,17.60
2018-04-02T03:18:22.320Z,21.08
2018-04-02T03:20:49.820Z,16.25
2018-04-02T03:23:17.444Z,16.12
2018-04-02T03:25:44.947Z,22.77
2018-04-02T03:28:12.484Z,18.95
2018-04-02T03:30:39.997Z,20.55
2018-04-02T03:33:07.508Z,19.85
2018-04-02T03:35:35.012Z,16.40
2018-04-02T03:38:02.498Z,18.12
2018-04-02T03:40:30.386Z,17.87
2018-04-02T03:42:57.875Z,15.52
2018-04-02T03:45:25.430Z,16.50
2018-04-02T03:47:52.935Z,15.57
2018-04-02T03:50:20.430Z,19.25
2018-04-02T03:52:47.930Z,16.90
2018-04-02T03:55:15.448Z,18.25
2018-04-02T03:57:43.045Z,17.98
2018-04-02T04:00:10.548Z,15.50
2018-04-02T04:02:38.059Z,15.32
2018-04-02T04:05:05.548Z,21.52
2018-04-02T04:07:33.164Z,17.45
2018-04-02T04:10:00.670Z,17.05
2018-04-02T04:12:28.216Z,16.08
2018-04-02T04:14:55.724Z,18.37
2018-04-02T04:17:23.193Z,21.17
2018-04-02T04:19:50.688Z,17.12
2018-04-02T04:22:18.206Z,24.25
2018-04-02T04:24:45.715Z,19.25
2018-04-02T04:27:13.343Z,19.00
2018-04-02T04:29:40.859Z,16.87
2018-04-02T04:32:08.349Z,16.48
2018-04-02T04:34:35.858Z,16.80
2018-04-02T04:37:03.362Z,18.67
2018-04-02T04:39:30.869Z,17.42
2018-04-02T04:41:58.379Z,16.73
2018-04-02T04:44:25.877Z,17.15
2018-04-02T04:46:53.392Z,23.02
2018-04-02T04:49:21.089Z,18.52
2018-04-02T04:51:48.580Z,16.37
2018-04-02T04:54:16.209Z,15.73
2018-04-02T04:56:43.681Z,15.82
2018-04-02T04:59:11.252Z,19.42
2018-04-02T05:01:38.735Z,21.50
2018-04-02T05:04:06.241Z,23.05
2018-04-02T05:06:33.731Z,20.55
2018-04-02T05:09:01.233Z,29.45
2018-04-02T05:11:28.745Z,17.55
2018-04-02T05:13:56.243Z,17.23
2018-04-02T05:16:23.742Z,17.15
2018-04-02T05:18:51.239Z,22.23
2018-04-02T05:21:18.771Z,19.02
2018-04-02T05:23:46.251Z,15.57
2018-04-02T05:26:13.767Z,16.62
2018-04-02T05:28:41.261Z,18.52
2018-04-02T05:31:08.797Z,16.65
2018-04-02T05:33:36.281Z,16.45
2018-04-02T05:36:03.785Z,19.62
2018-04-02T05:38:31.283Z,15.30
2018-04-02T05:40:58.782Z,15.43
2018-04-02T05:43:26.300Z,17.42
2018-04-02T05:45:53.782Z,17.30
2018-04-02T05:48:21.289Z,17.12
2018-04-02T05:50:48.839Z,17.95
2018-04-02T05:53:16.346Z,13.80
2018-04-02T05:55:43.845Z,24.30
2018-04-02T05:58:11.346Z,22.00
2018-04-02T06:00:38.836Z,14.82
2018-04-02T06:03:06.322Z,16.48
2018-04-02T06:05:33.878Z,16.60
2018-04-02T06:08:01.344Z,17.58
2018-04-02T06:10:28.843Z,15.18
2018-04-02T06:12:56.338Z,16.60
2018-04-02T06:15:23.853Z,18.30
2018-04-02T06:17:51.333Z,18.62
2018-04-02T06:20:18.825Z,15.50
2018-04-02T06:22:46.324Z,15.77
2018-04-02T06:25:14.035Z,14.87
2018-04-02T06:27:42.015Z,14.23
2018-04-02T06:30:09.501Z,11.50
2018-04-02T06:32:37.005Z,13.90
2018-04-02T06:35:04.484Z,13.80
2018-04-02T06:37:31.984Z,13.95
2018-04-02T06:39:59.477Z,14.05
2018-04-02T06:42:27.025Z,9.93
2018-04-02T06:44:54.526Z,14.10
2018-04-02T06:47:22.123Z,13.75
2018-04-02T06:49:49.675Z,12.02
2018-04-02T06:52:17.185Z,14.68
2018-04-02T06:54:44.755Z,13.98
2018-04-02T06:57:12.238Z,13.10
2018-04-02T06:59:39.756Z,14.80
2018-04-02T07:02:07.252Z,15.57
2018-04-02T07:04:34.883Z,16.17
2018-04-02T07:07:02.339Z,12.27
2018-04-02T07:09:29.835Z,16.67
2018-04-02T07:11:57.568Z,10.57
2018-04-02T07:14:25.043Z,12.37
2018-04-02T07:16:52.540Z,14.40
2018-04-02T07:19:20.065Z,11.93
2018-04-02T07:21:47.876Z,13.23
2018-04-02T07:24:15.401Z,12.50
2018-04-02T07:26:43.053Z,10.02
2018-04-02T07:29:10.569Z,11.98
2018-04-02T07:31:38.060Z,9.03
2018-04-02T07:34:05.672Z,11.87
2018-04-02T07:36:33.167Z,10.63
2018-04-02T07:39:00.668Z,8.80
2018-04-02T07:41:28.155Z,10.07
2018-04-02T07:43:55.803Z,9.73
2018-04-02T07:46:23.364Z,9.88
2018-04-02T07:48:50.887Z,12.20
2018-04-02T07:51:18.385Z,10.10
2018-04-02T07:53:45.887Z,9.70
2018-04-02T07:56:13.408Z,13.93
2018-04-02T07:58:40.896Z,9.73
2018-04-02T08:01:08.431Z,9.60
2018-04-02T08:03:36.010Z,15.37
2018-04-02T08:06:03.517Z,10.10
2018-04-02T08:08:31.107Z,10.77
2018-04-02T08:10:58.597Z,12.80
2018-04-02T08:13:26.071Z,9.10
2018-04-02T08:15:53.590Z,9.50
2018-04-02T08:18:21.099Z,9.07
2018-04-02T08:20:48.612Z,6.90
2018-04-02T08:23:16.281Z,9.23
2018-04-02T08:25:44.884Z,7.13
2018-04-02T08:28:13.282Z,6.10
2018-04-02T08:30:40.833Z,7.83
2018-04-02T08:33:13.177Z,8.07
2018-04-02T08:35:40.757Z,6.03
2018-04-02T08:38:08.231Z,7.13
2018-04-02T08:40:35.728Z,9.93
2018-04-02T08:43:03.257Z,7.47
2018-04-02T08:45:30.784Z,8.73
2018-04-02T08:47:58.263Z,9.03
2018-04-02T08:50:25.856Z,5.47
2018-04-02T08:52:53.453Z,5.77
2018-04-02T08:55:20.944Z,7.97
2018-04-02T08:57:48.453Z,6.27
2018-04-02T09:00:16.080Z,8.30
2018-04-02T09:02:44.653Z,6.10
2018-04-02T09:05:12.166Z,5.63
2018-04-02T09:07:39.823Z,3.77
2018-04-02T09:10:07.912Z,4.37
2018-04-02T09:12:36.571Z,3.53
2018-04-02T09:15:04.232Z,4.87
2018-04-02T09:17:31.743Z,6.40
2018-04-02T09:19:59.236Z,4.40
2018-04-02T09:22:26.832Z,2.60
2018-04-02T09:24:54.395Z,2.60
2018-04-02T09:27:21.911Z,3.23
2018-04-02T09:29:49.403Z,2.87
2018-04-02T09:32:17.228Z,2.50
2018-04-02T09:34:44.721Z,4.80
2018-04-02T09:37:12.200Z,4.30
2018-04-02T09:39:39.716Z,1.80
2018-04-02T09:42:07.240Z,2.63
2018-04-02T09:44:34.770Z,5.67
2018-04-02T09:47:02.256Z,2.90
2018-04-02T09:49:29.731Z,1.90
2018-04-02T09:51:57.443Z,2.80
2018-04-02T09:54:24.942Z,3.03
2018-04-02T09:56:52.441Z,1.73
2018-04-02T09:59:19.949Z,6.20
2018-04-02T10:01:47.734Z,5.20
2018-04-02T10:04:15.342Z,11.07
2018-04-02T10:06:42.860Z,5.67
2018-04-02T10:09:10.351Z,4.43
2018-04-02T10:11:37.855Z,6.20
2018-04-02T10:14:05.340Z,6.10
2018-04-02T10:16:32.870Z,9.70
2018-04-02T10:19:00.371Z,4.87
2018-04-02T10:21:27.899Z,6.60
2018-04-02T10:23:55.467Z,7.00
2018-04-02T10:26:23.077Z,2.80
2018-04-02T10:28:50.580Z,6.80
2018-04-02T10:31:18.103Z,4.23
2018-04-02T10:33:45.742Z,4.63
2018-04-02T10:36:13.892Z,2.77
2018-04-02T10:38:41.466Z,5.77
2018-04-02T10:41:08.972Z,2.40
2018-04-02T10:43:36.564Z,3.10
2018-04-02T10:46:04.084Z,4.13
2018-04-02T10:48:31.631Z,6.73
2018-04-02T10:50:59.829Z,3.63
2018-04-02T10:53:27.344Z,3.20
2018-04-02T10:55:54.891Z,3.00
2018-04-02T10:58:22.404Z,2.63
2018-04-02T11:00:49.967Z,2.97
2018-04-02T11:03:17.490Z,2.67
2018-04-02T11:05:44.989Z,4.13
2018-04-02T11:08:12.518Z,4.07
2018-04-02T11:10:39.995Z,2.70
2018-04-02T11:13:07.551Z,4.10
2018-04-02T11:15:35.043Z,4.50
2018-04-02T11:18:02.632Z,4.67
2018-04-02T11:20:30.130Z,11.63
2018-04-02T11:22:57.685Z,4.77
2018-04-02T11:25:25.263Z,4.77
2018-04-02T11:27:52.782Z,3.40
2018-04-02T11:30:20.275Z,3.10
2018-04-02T11:32:47.793Z,2.37
2018-04-02T11:35:16.400Z,4.50
2018-04-02T11:37:43.905Z,4.47
2018-04-02T11:40:11.491Z,2.60
2018-04-02T11:42:38.993Z,3.20
2018-04-02T11:45:06.584Z,2.90
2018-04-02T11:47:34.047Z,2.60
2018-04-02T11:50:01.556Z,3.67
2018-04-02T11:52:29.044Z,3.73
2018-04-02T11:54:56.552Z,3.50
2018-04-02T11:57:24.070Z,2.63
2018-04-02T11:59:51.625Z,4.20
2018-04-02T12:02:19.131Z,2.67
2018-04-02T12:04:46.610Z,5.17
2018-04-02T12:07:14.506Z,1.63
2018-04-02T12:09:42.125Z,6.83
2018-04-02T12:12:09.686Z,2.30
2018-04-02T12:14:37.168Z,2.83
2018-04-02T12:17:04.683Z,1.70
2018-04-02T12:19:32.236Z,2.77
2018-04-02T12:21:59.716Z,4.90
2018-04-02T12:24:39.629Z,7.83
2018-04-02T12:27:09.016Z,3.97
2018-04-02T12:29:36.677Z,3.03
2018-04-02T12:32:04.212Z,1.83
2018-04-02T12:34:31.751Z,2.23
2018-04-02T12:36:59.240Z,2.00
2018-04-02T12:39:26.930Z,1.67
2018-04-02T12:41:54.440Z,3.40
2018-04-02T12:44:21.946Z,3.23
2018-04-02T12:46:49.450Z,3.10
2018-04-02T12:49:17.053Z,3.00
2018-04-02T12:51:44.539Z,1.60
2018-04-02T12:54:12.042Z,2.40
2018-04-02T12:56:39.921Z,1.90
2018-04-02T12:59:07.414Z,1.97
2018-04-02T13:01:34.929Z,1.20
2018-04-02T13:04:02.606Z,1.33
2018-04-02T13:06:30.102Z,2.80
2018-04-02T13:08:57.603Z,1.53
2018-04-02T13:11:25.094Z,2.57
2018-04-02T13:13:52.637Z,1.47
2018-04-02T13:16:20.948Z,1.50
2018-04-02T13:18:48.463Z,1.60
2018-04-02T13:21:15.959Z,1.50
2018-04-02T13:23:43.454Z,2.50
2018-04-02T13:26:10.940Z,6.83
2018-04-02T13:28:38.404Z,1.73
2018-04-02T13:31:05.910Z,3.30
2018-04-02T13:33:33.618Z,1.83
2018-04-02T13:36:01.101Z,1.13
2018-04-02T13:38:28.614Z,1.67
2018-04-02T13:40:56.119Z,0.97
2018-04-02T13:43:23.610Z,1.60
2018-04-02T13:45:51.097Z,2.30
2018-04-02T13:48:18.719Z,1.30
2018-04-02T13:50:46.235Z,1.30
2018-04-02T13:53:13.715Z,2.40
2018-04-02T13:55:41.218Z,1.30
2018-04-02T13:58:08.772Z,1.10
2018-04-02T14:00:36.254Z,1.83
2018-04-02T14:03:03.776Z,1.30
2018-04-02T14:05:31.301Z,1.20
2018-04-02T14:07:58.797Z,0.97
2018-04-02T14:10:26.308Z,1.10
2018-04-02T14:12:53.810Z,0.90
2018-04-02T14:15:21.301Z,1.57
2018-04-02T14:17:48.795Z,5.13
2018-04-02T14:20:16.319Z,1.23
2018-04-02T14:22:43.828Z,1.20
2018-04-02T14:25:11.287Z,1.50
2018-04-02T14:27:38.859Z,2.00
2018-04-02T14:30:06.402Z,1.60
2018-04-02T14:32:33.922Z,1.63
2018-04-02T14:35:01.401Z,2.37
2018-04-02T14:37:28.902Z,1.67
2018-04-02T14:39:56.424Z,2.67
2018-04-02T14:42:23.919Z,2.60
2018-04-02T14:44:51.459Z,2.10
2018-04-02T14:47:20.326Z,3.53
2018-04-02T14:49:48.998Z,2.17
2018-04-02T14:52:16.530Z,1.60
2018-04-02T14:54:44.098Z,3.57
2018-04-02T14:57:11.902Z,1.47
2018-04-02T14:59:39.410Z,5.47
2018-04-02T15:02:06.881Z,1.17
2018-04-02T15:04:34.708Z,0.90
2018-04-02T15:07:02.195Z,1.43
2018-04-02T15:09:29.673Z,1.33
2018-04-02T15:11:57.178Z,1.20
2018-04-02T15:14:25.572Z,1.30
2018-04-02T15:16:53.080Z,2.00
2018-04-02T15:19:20.555Z,1.70
2018-04-02T15:21:48.329Z,1.23
2018-04-02T15:24:15.817Z,1.10
2018-04-02T15:26:43.975Z,5.80
2018-04-02T15:29:11.510Z,2.03
2018-04-02T15:31:39.017Z,1.20
2018-04-02T15:34:06.524Z,1.27
2018-04-02T15:36:34.000Z,0.93
2018-04-02T15:39:01.596Z,1.53
2018-04-02T15:41:29.085Z,1.77
2018-04-02T15:43:56.580Z,1.33
2018-04-02T15:46:24.078Z,1.37
2018-04-02T15:48:51.584Z,1.30
2018-04-02T15:51:19.151Z,3.23
2018-04-02T15:53:46.644Z,1.40
2018-04-02T15:56:17.260Z,1.53
2018-04-02T15:58:44.757Z,1.97
2018-04-02T16:01:13.462Z,5.80
2018-04-02T16:03:40.954Z,2.80
2018-04-02T16:06:08.479Z,1.83
2018-04-02T16:08:35.972Z,1.43
2018-04-02T16:11:03.504Z,1.13
2018-04-02T16:13:31.043Z,1.30
2018-04-02T16:15:58.650Z,1.37
2018-04-02T16:18:26.253Z,2.80
2018-04-02T16:20:53.911Z,4.20
2018-04-02T16:23:22.881Z,1.93
2018-04-02T16:25:50.381Z,1.87
2018-04-02T16:28:18.088Z,2.60
2018-04-02T16:30:45.651Z,4.00
2018-04-02T16:33:13.192Z,3.73
2018-04-02T16:35:40.765Z,1.20
2018-04-02T16:40:58.572Z,2.90
2018-04-02T16:43:26.188Z,2.40
2018-04-02T16:45:54.113Z,1.80
2018-04-02T16:48:21.892Z,1.73
2018-04-02T16:50:49.637Z,1.47
2018-04-02T16:53:17.434Z,4.83
2018-04-02T16:55:49.022Z,2.00
2018-04-02T16:58:32.384Z,2.03
2018-04-02T17:01:00.703Z,4.03
2018-04-02T17:03:28.172Z,5.43
2018-04-02T17:06:02.340Z,16.30
2018-04-02T17:08:29.868Z,2.73
2018-04-02T17:10:57.358Z,2.70
2018-04-02T17:13:24.832Z,2.30
2018-04-02T17:15:52.323Z,4.50
2018-04-02T17:18:19.818Z,2.60
2018-04-02T17:20:47.381Z,4.43
2018-04-02T17:23:15.121Z,3.43
2018-04-02T17:25:42.627Z,1.60
2018-04-02T17:28:10.131Z,3.20
2018-04-02T17:30:37.641Z,2.43
2018-04-02T17:33:05.124Z,2.70
2018-04-02T17:35:32.634Z,4.23
2018-04-02T17:38:00.207Z,2.30
2018-04-02T17:40:28.707Z,2.77
2018-04-02T17:42:57.816Z,2.80
2018-04-02T17:45:25.438Z,3.43
2018-04-02T17:47:53.044Z,6.10
2018-04-02T17:50:21.144Z,5.93
2018-04-02T17:52:48.740Z,2.77
2018-04-02T17:55:20.233Z,1.77
2018-04-02T17:57:47.723Z,4.60
2018-04-02T18:00:15.354Z,3.10
2018-04-02T18:02:46.188Z,2.53
2018-04-02T18:05:14.266Z,2.10
2018-04-02T18:07:42.118Z,2.13
2018-04-02T18:10:09.631Z,3.70
2018-04-02T18:12:40.641Z,3.93
2018-04-02T18:15:08.297Z,3.27
2018-04-02T18:17:35.922Z,2.43
2018-04-02T18:20:03.493Z,3.23
2018-04-02T18:22:31.039Z,7.20
2018-04-02T18:25:00.727Z,1.83
2018-04-02T18:27:28.429Z,2.70
2018-04-02T18:29:55.924Z,1.50
2018-04-02T18:32:23.942Z,3.13
2018-04-02T18:34:57.063Z,6.20
2018-04-02T18:37:24.681Z,7.50
2018-04-02T18:39:52.205Z,4.20
2018-04-02T18:42:20.781Z,6.53
2018-04-02T18:44:48.927Z,2.10
2018-04-02T18:47:21.250Z,3.00
2018-04-02T18:49:51.864Z,9.30
2018-04-02T18:52:35.624Z,9.90
2018-04-02T18:55:03.085Z,7.33
2018-04-02T18:57:30.656Z,6.70
2018-04-02T18:59:58.346Z,6.93
2018-04-02T19:02:25.903Z,3.40
2018-04-02T19:04:53.350Z,4.77
2018-04-02T19:07:20.792Z,1.83
2018-04-02T19:09:48.273Z,1.50
2018-04-02T19:12:17.920Z,2.03
2018-04-02T19:14:45.448Z,1.90
2018-04-02T19:17:12.998Z,2.50
2018-04-02T19:19:40.558Z,1.73
2018-04-02T19:22:08.022Z,2.37
2018-04-02T19:24:35.465Z,3.27
2018-04-02T19:27:02.965Z,2.20
2018-04-02T19:29:30.440Z,2.07
2018-04-02T19:31:57.929Z,2.40
2018-04-02T19:34:25.357Z,6.70
2018-04-02T19:36:52.829Z,2.73
2018-04-02T19:44:08.098Z,4.33
2018-04-02T19:46:35.579Z,5.27
2018-04-02T19:49:03.013Z,1.83
2018-04-02T19:51:30.791Z,1.60
2018-04-02T19:53:58.276Z,1.43
2018-04-02T19:56:25.737Z,5.87
2018-04-02T19:58:53.212Z,2.13
2018-04-02T20:01:20.751Z,4.93
2018-04-02T20:03:48.288Z,7.63
2018-04-02T20:06:15.727Z,3.40
2018-04-02T20:08:43.385Z,1.63
2018-04-02T20:11:10.968Z,7.67
2018-04-02T20:13:38.545Z,1.40
2018-04-02T20:18:39.681Z,1.23
2018-04-02T20:21:07.268Z,1.00
2018-04-02T20:23:34.934Z,2.37
2018-04-02T20:26:02.430Z,2.80
2018-04-02T20:28:29.918Z,1.50
2018-04-02T20:30:57.362Z,1.10
2018-04-02T20:33:24.927Z,3.63
2018-04-02T20:35:52.504Z,2.03
2018-04-02T20:38:19.941Z,1.43
2018-04-02T20:40:47.414Z,2.00
2018-04-02T20:43:15.113Z,0.97
2018-04-02T20:45:42.547Z,1.47
2018-04-02T20:48:09.985Z,1.10
2018-04-02T20:50:37.473Z,1.87
2018-04-02T20:53:04.905Z,2.30
2018-04-02T20:55:32.631Z,1.43
2018-04-02T20:58:00.235Z,2.20
2018-04-02T21:00:27.734Z,2.40
2018-04-02T21:02:55.177Z,1.43
2018-04-02T21:05:22.855Z,2.30
2018-04-02T21:07:50.496Z,3.93
2018-04-02T21:10:19.086Z,1.73
2018-04-02T21:12:46.588Z,1.60
2018-04-02T21:15:14.021Z,1.50
2018-04-02T21:17:41.709Z,2.10
2018-04-02T21:20:09.218Z,2.17
2018-04-02T21:22:36.666Z,1.03
2018-04-02T21:25:04.150Z,2.50
2018-04-02T21:27:31.574Z,1.80
2018-04-02T21:29:59.081Z,2.50
2018-04-02T21:32:26.528Z,2.70
2018-04-02T21:34:53.954Z,2.17
2018-04-02T21:37:38.082Z,3.00
2018-04-02T21:40:06.536Z,1.70
2018-04-02T21:42:34.297Z,4.13
2018-04-02T21:45:01.771Z,4.77
2018-04-02T21:47:29.304Z,1.70
2018-04-02T21:49:56.782Z,2.10
2018-04-02T21:52:25.174Z,2.33
2018-04-02T21:54:53.373Z,1.80
2018-04-02T21:57:20.966Z,11.13
2018-04-02T21:59:48.406Z,1.67
2018-04-02T22:02:15.859Z,2.50
2018-04-02T22:04:43.317Z,5.97
2018-04-02T22:07:10.741Z,1.70
2018-04-02T22:09:38.178Z,3.00
2018-04-02T22:12:05.627Z,2.07
2018-04-02T22:14:33.063Z,6.03
2018-04-02T22:17:00.494Z,3.10
2018-04-02T22:19:27.933Z,2.87
2018-04-02T22:21:55.363Z,2.10
2018-04-02T22:24:22.793Z,2.13
2018-04-02T22:26:50.259Z,3.13
2018-04-02T22:29:17.693Z,2.83
2018-04-02T22:31:45.121Z,2.00
2018-04-02T22:34:12.553Z,1.97
2018-04-02T22:36:40.027Z,3.03
2018-04-02T22:39:07.526Z,3.50
2018-04-02T22:41:34.967Z,3.90
2018-04-02T22:44:08.531Z,2.20
2018-04-02T22:46:35.976Z,2.17
2018-04-02T22:49:03.426Z,1.60
2018-04-02T22:51:31.194Z,2.07
2018-04-02T22:53:58.878Z,1.60
2018-04-02T22:56:26.769Z,1.77
2018-04-02T22:58:54.197Z,1.57
2018-04-02T23:01:21.682Z,2.43
2018-04-02T23:03:49.144Z,2.50
2018-04-02T23:06:16.602Z,3.43
2018-04-02T23:08:44.135Z,2.07
2018-04-02T23:11:11.568Z,2.27
2018-04-02T23:13:39.007Z,2.83
2018-04-02T23:16:06.506Z,1.60
2018-04-02T23:18:33.950Z,1.77
2018-04-02T23:21:01.484Z,2.43
2018-04-02T23:23:28.924Z,3.03
2018-04-02T23:25:56.349Z,2.20
2018-04-02T23:28:23.801Z,5.37
2018-04-02T23:30:51.244Z,3.60
2018-04-02T23:33:18.690Z,4.07
2018-04-02T23:35:46.197Z,2.10
2018-04-02T23:38:13.621Z,5.37
2018-04-02T23:40:41.078Z,3.77
2018-04-02T23:43:08.517Z,1.77
2018-04-02T23:45:35.957Z,3.33
2018-04-02T23:48:03.381Z,1.67
2018-04-02T23:50:30.836Z,3.37
2018-04-02T23:52:58.261Z,2.57
2018-04-02T23:55:25.691Z,2.33
2018-04-02T23:57:53.132Z,2.80
